createdAt,value
2018-06-23T00:00:58.536Z,10.80
2018-06-23T00:03:27.036Z,10.70
2018-06-23T00:05:55.828Z,10.60
2018-06-23T00:08:24.627Z,10.60
2018-06-23T00:10:53.198Z,10.60
2018-06-23T00:13:22.611Z,10.50
2018-06-23T00:15:53.518Z,10.50
2018-06-23T00:18:22.024Z,10.40
2018-06-23T00:20:50.540Z,10.40
2018-06-23T00:23:19.049Z,10.30
2018-06-23T00:25:52.800Z,10.30
2018-06-23T00:28:21.503Z,10.30
2018-06-23T00:30:50.011Z,10.30
2018-06-23T00:33:18.583Z,10.30
2018-06-23T00:35:47.078Z,10.30
2018-06-23T00:38:15.613Z,10.30
2018-06-23T00:40:44.136Z,10.40
2018-06-23T00:43:12.733Z,10.40
2018-06-23T00:45:41.259Z,10.40
2018-06-23T00:48:09.761Z,10.40
2018-06-23T00:50:38.300Z,10.40
2018-06-23T00:53:06.800Z,10.40
2018-06-23T00:55:35.372Z,10.50
2018-06-23T00:58:03.870Z,10.40
2018-06-23T01:00:38.729Z,10.40
2018-06-23T01:03:07.406Z,10.50
2018-06-23T01:05:35.896Z,10.40
2018-06-23T01:08:04.424Z,10.50
2018-06-23T01:13:01.172Z,10.60
2018-06-23T01:15:29.704Z,10.70
2018-06-23T01:17:58.186Z,10.70
2018-06-23T01:20:26.735Z,10.80
2018-06-23T01:22:55.280Z,10.90
2018-06-23T01:25:23.780Z,11.00
2018-06-23T01:27:52.267Z,11.00
2018-06-23T01:30:20.796Z,11.10
2018-06-23T01:32:49.523Z,11.10
2018-06-23T01:35:18.016Z,11.20
2018-06-23T01:37:46.544Z,11.20
2018-06-23T01:40:15.029Z,11.20
2018-06-23T01:42:43.513Z,11.20
2018-06-23T01:45:12.044Z,11.20
2018-06-23T01:47:40.543Z,11.20
2018-06-23T01:50:09.096Z,11.30
2018-06-23T01:52:37.596Z,11.30
2018-06-23T01:55:06.147Z,11.30
2018-06-23T01:57:34.837Z,11.30
2018-06-23T02:00:03.332Z,11.40
2018-06-23T02:02:31.868Z,11.50
2018-06-23T02:05:00.380Z,11.60
2018-06-23T02:07:28.935Z,11.70
2018-06-23T02:09:57.461Z,11.70
2018-06-23T02:12:25.998Z,11.80
2018-06-23T02:14:59.937Z,11.80
2018-06-23T02:17:33.773Z,11.80
2018-06-23T02:20:07.638Z,11.80
2018-06-23T02:22:41.607Z,11.80
2018-06-23T02:27:48.855Z,11.80
2018-06-23T02:30:22.853Z,11.80
2018-06-23T02:32:53.362Z,11.90
2018-06-23T02:35:22.409Z,11.90
2018-06-23T02:37:51.000Z,11.80
2018-06-23T02:40:19.516Z,11.90
2018-06-23T02:42:48.017Z,11.90
2018-06-23T02:45:16.566Z,12.00
2018-06-23T02:47:45.028Z,12.00
2018-06-23T02:50:13.567Z,11.90
2018-06-23T02:52:42.021Z,11.90
2018-06-23T02:55:10.538Z,11.80
2018-06-23T02:57:39.021Z,11.80
2018-06-23T03:00:07.514Z,11.80
2018-06-23T03:02:36.008Z,11.80
2018-06-23T03:05:04.776Z,11.70
2018-06-23T03:07:33.303Z,11.70
2018-06-23T03:10:01.762Z,11.80
2018-06-23T03:12:30.441Z,11.80
2018-06-23T03:14:59.093Z,11.80
2018-06-23T03:19:55.769Z,11.70
2018-06-23T03:22:24.252Z,11.70
2018-06-23T03:24:52.745Z,11.70
2018-06-23T03:27:21.286Z,11.80
2018-06-23T03:29:49.737Z,11.80
2018-06-23T03:32:18.289Z,11.80
2018-06-23T03:34:46.784Z,11.80
2018-06-23T03:37:15.244Z,11.80
2018-06-23T03:39:43.737Z,11.80
2018-06-23T03:42:12.233Z,11.80
2018-06-23T03:44:40.746Z,11.80
2018-06-23T03:47:09.237Z,11.80
2018-06-23T03:49:37.731Z,11.80
2018-06-23T03:52:06.258Z,11.80
2018-06-23T03:54:34.715Z,11.80
2018-06-23T03:59:31.993Z,11.70
2018-06-23T04:02:00.639Z,11.60
2018-06-23T04:04:29.140Z,11.60
2018-06-23T04:09:25.840Z,11.60
2018-06-23T04:11:54.388Z,11.50
2018-06-23T04:14:22.937Z,11.50
2018-06-23T04:16:51.548Z,11.60
2018-06-23T04:19:20.004Z,11.60
2018-06-23T04:21:48.517Z,11.60
2018-06-23T04:24:17.028Z,11.60
2018-06-23T04:26:45.528Z,11.60
2018-06-23T04:29:14.045Z,11.70
2018-06-23T04:31:42.565Z,11.70
2018-06-23T04:34:11.091Z,11.80
2018-06-23T04:36:39.596Z,11.80
2018-06-23T04:39:08.727Z,11.80
2018-06-23T04:41:37.755Z,11.80
2018-06-23T04:44:06.496Z,11.80
2018-06-23T04:46:35.133Z,11.90
2018-06-23T04:49:03.659Z,12.00
2018-06-23T04:56:28.719Z,12.20
2018-06-23T04:58:57.218Z,12.30
2018-06-23T05:01:25.933Z,12.40
2018-06-23T05:03:54.489Z,12.40
2018-06-23T05:06:22.988Z,12.50
2018-06-23T05:08:51.500Z,12.50
2018-06-23T05:11:20.896Z,12.50
2018-06-23T05:13:49.396Z,12.60
2018-06-23T05:16:17.913Z,12.60
2018-06-23T05:18:46.905Z,12.70
2018-06-23T05:21:15.439Z,12.70
2018-06-23T05:23:43.933Z,12.80
2018-06-23T05:26:12.417Z,12.70
2018-06-23T05:31:09.272Z,12.70
2018-06-23T05:33:37.752Z,12.80
2018-06-23T05:36:06.325Z,12.90
2018-06-23T05:38:34.800Z,12.90
2018-06-23T05:41:03.336Z,12.90
2018-06-23T05:43:31.828Z,13.00
2018-06-23T05:46:00.400Z,13.00
2018-06-23T05:48:28.891Z,13.10
2018-06-23T05:50:57.449Z,13.20
2018-06-23T05:55:54.665Z,13.30
2018-06-23T05:58:23.178Z,13.30
2018-06-23T06:00:51.737Z,13.40
2018-06-23T06:03:20.225Z,13.40
2018-06-23T06:05:48.750Z,13.40
2018-06-23T06:08:17.252Z,13.50
2018-06-23T06:10:45.806Z,13.50
2018-06-23T06:13:14.331Z,13.50
2018-06-23T06:15:42.832Z,13.60
2018-06-23T06:18:11.366Z,13.60
2018-06-23T06:20:39.861Z,13.70
2018-06-23T06:23:08.383Z,13.70
2018-06-23T06:25:36.861Z,13.80
2018-06-23T06:28:05.416Z,13.80
2018-06-23T06:30:33.892Z,13.80
2018-06-23T06:33:02.412Z,13.90
2018-06-23T06:35:30.962Z,14.00
2018-06-23T06:37:59.524Z,14.10
2018-06-23T06:40:28.001Z,14.30
2018-06-23T06:42:56.772Z,14.40
2018-06-23T06:45:25.238Z,14.50
2018-06-23T06:47:53.748Z,14.60
2018-06-23T06:50:22.276Z,14.60
2018-06-23T06:52:50.779Z,14.80
2018-06-23T06:55:19.304Z,14.70
2018-06-23T07:00:15.994Z,14.50
2018-06-23T07:02:44.533Z,14.60
2018-06-23T07:05:13.049Z,14.70
2018-06-23T07:07:41.568Z,15.00
2018-06-23T07:10:10.085Z,15.10
2018-06-23T07:12:38.620Z,15.30
2018-06-23T07:15:15.313Z,15.30
2018-06-23T07:17:44.103Z,15.20
2018-06-23T07:20:13.194Z,15.00
2018-06-23T07:22:42.127Z,14.80
2018-06-23T07:25:10.614Z,14.70
2018-06-23T07:30:07.897Z,15.00
2018-06-23T07:32:36.444Z,15.00
2018-06-23T07:35:05.066Z,15.00
2018-06-23T07:37:33.560Z,14.90
2018-06-23T07:40:02.095Z,14.80
2018-06-23T07:42:30.644Z,14.70
2018-06-23T07:44:59.217Z,14.70
2018-06-23T07:47:27.685Z,14.80
2018-06-23T07:49:56.196Z,14.90
2018-06-23T07:52:24.665Z,14.90
2018-06-23T07:54:53.151Z,14.90
2018-06-23T07:57:21.640Z,14.80
2018-06-23T07:59:50.136Z,14.90
2018-06-23T08:02:18.602Z,15.10
2018-06-23T08:04:47.301Z,15.30
2018-06-23T08:07:15.882Z,15.50
2018-06-23T08:09:44.365Z,15.50
2018-06-23T08:12:12.955Z,15.40
2018-06-23T08:14:41.462Z,15.40
2018-06-23T08:17:09.962Z,15.20
2018-06-23T08:22:06.770Z,15.00
2018-06-23T08:24:35.294Z,14.90
2018-06-23T08:27:03.844Z,15.00
2018-06-23T08:29:32.330Z,15.20
2018-06-23T08:32:00.985Z,15.30
2018-06-23T08:34:29.590Z,15.40
2018-06-23T08:36:58.128Z,15.60
2018-06-23T08:39:26.968Z,15.70
2018-06-23T08:41:55.996Z,15.70
2018-06-23T08:44:24.493Z,15.30
2018-06-23T08:46:53.057Z,15.00
2018-06-23T08:49:21.532Z,14.90
2018-06-23T08:51:50.101Z,14.80
2018-06-23T08:54:18.573Z,15.00
2018-06-23T08:56:47.128Z,15.30
2018-06-23T08:59:15.612Z,15.40
2018-06-23T09:01:44.144Z,15.50
2018-06-23T09:04:12.623Z,15.40
2018-06-23T09:06:41.153Z,15.40
2018-06-23T09:09:10.715Z,15.60
2018-06-23T09:11:39.724Z,15.80
2018-06-23T09:14:08.425Z,15.90
2018-06-23T09:16:37.320Z,15.90
2018-06-23T09:19:05.929Z,16.10
2018-06-23T09:21:34.635Z,16.10
2018-06-23T09:24:03.218Z,16.00
2018-06-23T09:26:32.701Z,15.80
2018-06-23T09:29:01.219Z,16.20
2018-06-23T09:31:29.700Z,16.30
2018-06-23T09:33:58.229Z,16.00
2018-06-23T09:36:26.717Z,15.80
2018-06-23T09:41:23.827Z,15.90
2018-06-23T09:43:52.355Z,16.20
2018-06-23T09:46:20.888Z,16.30
2018-06-23T09:48:49.420Z,16.00
2018-06-23T09:51:17.937Z,16.00
2018-06-23T09:53:46.462Z,16.00
2018-06-23T09:56:14.924Z,16.20
2018-06-23T09:58:43.432Z,16.50
2018-06-23T10:01:11.964Z,16.70
2018-06-23T10:03:40.461Z,16.70
2018-06-23T10:06:08.981Z,16.80
2018-06-23T10:08:37.631Z,16.70
2018-06-23T10:11:06.288Z,16.60
2018-06-23T10:13:34.766Z,16.40
2018-06-23T10:16:03.432Z,16.30
2018-06-23T10:18:31.972Z,16.20
2018-06-23T10:21:00.692Z,16.30
2018-06-23T10:23:29.192Z,16.30
2018-06-23T10:25:57.838Z,16.10
2018-06-23T10:28:26.552Z,16.00
2018-06-23T10:30:55.177Z,16.20
2018-06-23T10:33:23.700Z,16.40
2018-06-23T10:35:55.281Z,16.50
2018-06-23T10:38:23.921Z,16.40
2018-06-23T10:40:52.472Z,16.30
2018-06-23T10:43:21.064Z,16.30
2018-06-23T10:45:49.634Z,16.30
2018-06-23T10:50:46.383Z,16.40
2018-06-23T10:53:14.862Z,16.40
2018-06-23T10:55:43.382Z,16.40
2018-06-23T10:58:11.938Z,16.30
2018-06-23T11:00:40.547Z,16.40
2018-06-23T11:03:09.313Z,16.60
2018-06-23T11:05:37.813Z,16.70
2018-06-23T11:08:06.362Z,16.90
2018-06-23T11:10:34.943Z,16.90
2018-06-23T11:13:03.461Z,17.00
2018-06-23T11:15:31.945Z,17.10
2018-06-23T11:18:00.630Z,17.10
2018-06-23T11:20:35.773Z,16.90
2018-06-23T11:23:18.687Z,16.80
2018-06-23T11:25:55.809Z,16.60
2018-06-23T11:31:02.381Z,16.50
2018-06-23T11:33:44.027Z,16.60
2018-06-23T11:36:31.135Z,16.30
2018-06-23T11:38:59.885Z,16.10
2018-06-23T11:41:28.433Z,16.10
2018-06-23T11:43:56.945Z,16.40
2018-06-23T11:46:25.524Z,16.70
2018-06-23T11:48:54.069Z,17.00
2018-06-23T11:53:50.805Z,16.80
2018-06-23T11:56:19.337Z,16.70
2018-06-23T11:58:47.877Z,16.60
2018-06-23T12:01:16.373Z,16.60
2018-06-23T12:03:45.135Z,16.60
2018-06-23T12:06:13.656Z,16.40
2018-06-23T12:11:10.417Z,16.30
2018-06-23T12:16:07.597Z,16.20
2018-06-23T12:18:37.884Z,16.20
2018-06-23T12:21:07.622Z,16.20
2018-06-23T12:26:17.567Z,16.10
2018-06-23T12:28:49.823Z,16.00
2018-06-23T12:33:46.697Z,16.00
2018-06-23T12:36:15.188Z,16.20
2018-06-23T12:38:43.739Z,16.40
2018-06-23T12:41:12.302Z,16.60
2018-06-23T12:43:40.908Z,16.70
2018-06-23T12:46:09.400Z,16.90
2018-06-23T12:48:38.112Z,16.90
2018-06-23T12:51:06.658Z,16.90
2018-06-23T12:53:35.149Z,16.70
2018-06-23T12:56:03.724Z,16.90
2018-06-23T12:58:32.317Z,17.00
2018-06-23T13:01:00.856Z,16.80
2018-06-23T13:03:29.353Z,16.70
2018-06-23T13:05:57.901Z,16.70
2018-06-23T13:08:26.415Z,16.50
2018-06-23T13:10:54.939Z,16.30
2018-06-23T13:13:23.433Z,16.20
2018-06-23T13:15:51.952Z,16.00
2018-06-23T13:18:20.476Z,15.90
2018-06-23T13:20:48.966Z,15.70
2018-06-23T13:23:17.519Z,15.50
2018-06-23T13:25:47.360Z,15.50
2018-06-23T13:28:16.002Z,15.40
2018-06-23T13:30:44.499Z,15.30
2018-06-23T13:33:12.996Z,15.20
2018-06-23T13:35:42.036Z,15.10
2018-06-23T13:38:10.551Z,14.90
2018-06-23T13:40:40.354Z,14.50
2018-06-23T13:43:11.489Z,14.10
2018-06-23T13:45:40.216Z,13.80
2018-06-23T13:48:08.671Z,13.70
2018-06-23T13:50:37.240Z,13.80
2018-06-23T13:53:05.766Z,13.90
2018-06-23T13:55:34.360Z,14.00
2018-06-23T13:58:02.880Z,14.10
2018-06-23T14:00:31.432Z,14.20
2018-06-23T14:03:00.056Z,14.30
2018-06-23T14:07:56.808Z,14.60
2018-06-23T14:12:53.658Z,15.00
2018-06-23T14:15:22.136Z,15.10
2018-06-23T14:17:50.632Z,15.20
2018-06-23T14:20:19.153Z,15.20
2018-06-23T14:22:47.952Z,15.30
2018-06-23T14:25:16.749Z,15.30
2018-06-23T14:27:50.131Z,15.30
2018-06-23T14:30:18.729Z,15.30
2018-06-23T14:32:47.229Z,15.40
2018-06-23T14:35:15.826Z,15.50
2018-06-23T14:37:44.313Z,15.50
2018-06-23T14:40:13.039Z,15.50
2018-06-23T14:42:41.528Z,15.60
2018-06-23T14:45:13.140Z,15.60
2018-06-23T14:47:41.683Z,15.70
2018-06-23T14:50:10.440Z,15.80
2018-06-23T14:52:38.952Z,15.90
2018-06-23T14:55:07.504Z,15.90
2018-06-23T14:57:36.169Z,15.90
2018-06-23T15:00:05.109Z,15.70
2018-06-23T15:02:33.630Z,15.60
2018-06-23T15:05:02.211Z,15.70
2018-06-23T15:07:30.736Z,15.80
2018-06-23T15:10:10.401Z,15.90
2018-06-23T15:12:50.228Z,15.80
2018-06-23T15:15:18.776Z,15.70
2018-06-23T15:17:47.260Z,15.80
2018-06-23T15:20:15.813Z,15.80
2018-06-23T15:22:44.353Z,15.90
2018-06-23T15:25:12.918Z,15.90
2018-06-23T15:27:41.439Z,15.90
2018-06-23T15:30:09.938Z,15.90
2018-06-23T15:32:38.448Z,15.90
2018-06-23T15:35:06.950Z,15.90
2018-06-23T15:37:35.525Z,15.90
2018-06-23T15:40:04.079Z,16.00
2018-06-23T15:42:32.529Z,16.00
2018-06-23T15:45:01.020Z,15.90
2018-06-23T15:47:29.565Z,15.80
2018-06-23T15:49:58.152Z,15.80
2018-06-23T15:54:54.815Z,15.60
2018-06-23T15:57:23.324Z,15.60
2018-06-23T15:59:51.817Z,15.50
2018-06-23T16:02:20.330Z,15.40
2018-06-23T16:04:48.821Z,15.40
2018-06-23T16:07:17.339Z,15.40
2018-06-23T16:09:45.875Z,15.50
2018-06-23T16:12:14.356Z,15.50
2018-06-23T16:14:42.913Z,15.50
2018-06-23T16:17:11.599Z,15.50
2018-06-23T16:19:40.453Z,15.40
2018-06-23T16:22:08.928Z,15.40
2018-06-23T16:24:37.472Z,15.40
2018-06-23T16:27:06.001Z,15.30
2018-06-23T16:32:02.728Z,15.60
2018-06-23T16:34:31.278Z,15.60
2018-06-23T16:36:59.931Z,15.60
2018-06-23T16:39:31.040Z,15.80
2018-06-23T16:41:59.860Z,16.00
2018-06-23T16:44:28.357Z,16.30
2018-06-23T16:49:25.197Z,16.50
2018-06-23T16:51:53.679Z,16.70
2018-06-23T16:54:22.301Z,17.30
2018-06-23T16:56:50.812Z,17.40
2018-06-23T16:59:19.334Z,17.30
2018-06-23T17:01:47.860Z,17.10
2018-06-23T17:04:16.409Z,17.60
2018-06-23T17:06:44.879Z,18.40
2018-06-23T17:09:13.393Z,18.30
2018-06-23T17:11:42.193Z,18.30
2018-06-23T17:14:10.709Z,17.80
2018-06-23T17:16:39.189Z,17.40
2018-06-23T17:19:07.793Z,17.20
2018-06-23T17:21:36.289Z,16.80
2018-06-23T17:24:04.784Z,16.50
2018-06-23T17:26:33.256Z,16.50
2018-06-23T17:31:31.494Z,16.90
2018-06-23T17:36:28.203Z,17.10
2018-06-23T17:38:56.742Z,16.80
2018-06-23T17:41:25.389Z,16.50
2018-06-23T17:46:22.099Z,16.10
2018-06-23T17:48:50.560Z,15.90
2018-06-23T17:51:19.052Z,15.80
2018-06-23T17:53:47.585Z,15.60
2018-06-23T17:58:44.342Z,15.60
2018-06-23T18:03:41.060Z,15.40
2018-06-23T18:06:09.677Z,15.40
2018-06-23T18:08:38.118Z,15.30
2018-06-23T18:11:06.669Z,15.30
2018-06-23T18:13:35.192Z,15.10
2018-06-23T18:16:03.793Z,15.10
2018-06-23T18:18:33.377Z,14.90
2018-06-23T18:21:01.954Z,14.90
2018-06-23T18:23:30.447Z,15.10
2018-06-23T18:25:58.892Z,15.60
2018-06-23T18:28:27.741Z,15.90
2018-06-23T18:30:56.228Z,16.10
2018-06-23T18:33:24.740Z,16.50
2018-06-23T18:35:53.221Z,16.40
2018-06-23T18:38:21.679Z,16.10
2018-06-23T18:40:50.166Z,15.70
2018-06-23T18:45:48.305Z,15.00
2018-06-23T18:48:16.830Z,14.80
2018-06-23T18:50:45.304Z,14.50
2018-06-23T18:53:14.059Z,14.40
2018-06-23T18:55:42.585Z,14.30
2018-06-23T18:58:11.064Z,14.20
2018-06-23T19:00:39.566Z,14.10
2018-06-23T19:03:08.139Z,13.90
2018-06-23T19:05:36.819Z,13.80
2018-06-23T19:08:05.699Z,13.70
2018-06-23T19:10:34.202Z,13.70
2018-06-23T19:13:02.727Z,13.60
2018-06-23T19:15:32.629Z,13.50
2018-06-23T19:18:01.145Z,13.50
2018-06-23T19:20:29.839Z,13.50
2018-06-23T19:22:58.356Z,13.40
2018-06-23T19:25:27.348Z,13.40
2018-06-23T19:27:55.884Z,13.30
2018-06-23T19:30:24.411Z,13.30
2018-06-23T19:32:52.894Z,13.30
2018-06-23T19:37:49.764Z,13.10
2018-06-23T19:40:18.398Z,13.10
2018-06-23T19:42:46.905Z,13.00
2018-06-23T19:45:15.450Z,12.90
2018-06-23T19:47:44.168Z,12.90
2018-06-23T19:50:12.647Z,12.80
2018-06-23T19:52:41.144Z,12.80
2018-06-23T19:57:37.863Z,12.70
2018-06-23T20:00:06.304Z,12.70
2018-06-23T20:05:02.929Z,12.60
2018-06-23T20:07:31.502Z,12.60
2018-06-23T20:10:00.052Z,12.60
2018-06-23T20:12:28.532Z,12.50
2018-06-23T20:14:57.028Z,12.50
2018-06-23T20:17:25.502Z,12.40
2018-06-23T20:19:54.249Z,12.30
2018-06-23T20:22:22.734Z,12.20
2018-06-23T20:24:51.193Z,12.20
2018-06-23T20:27:19.733Z,12.10
2018-06-23T20:29:48.400Z,12.00
2018-06-23T20:34:45.110Z,11.90
2018-06-23T20:37:13.609Z,11.80
2018-06-23T20:39:42.165Z,11.80
2018-06-23T20:42:10.648Z,11.80
2018-06-23T20:44:39.125Z,11.90
2018-06-23T20:47:07.752Z,11.90
2018-06-23T20:49:36.270Z,11.90
2018-06-23T20:52:04.786Z,11.90
2018-06-23T20:54:33.305Z,12.00
2018-06-23T20:57:01.812Z,12.00
2018-06-23T21:01:58.540Z,12.10
2018-06-23T21:04:27.263Z,12.20
2018-06-23T21:06:55.975Z,12.30
2018-06-23T21:09:24.484Z,12.30
2018-06-23T21:11:53.012Z,12.40
2018-06-23T21:16:49.651Z,12.40
2018-06-23T21:19:18.180Z,12.40
2018-06-23T21:21:46.640Z,12.40
2018-06-23T21:24:15.149Z,12.40
2018-06-23T21:26:43.660Z,12.30
2018-06-23T21:29:12.134Z,12.20
2018-06-23T21:31:40.661Z,12.10
2018-06-23T21:36:37.349Z,12.10
2018-06-23T21:39:07.288Z,12.00
2018-06-23T21:41:35.760Z,12.00
2018-06-23T21:44:04.261Z,12.10
2018-06-23T21:46:32.808Z,12.00
2018-06-23T21:49:01.650Z,12.00
2018-06-23T21:51:30.105Z,12.10
2018-06-23T21:53:58.560Z,12.10
2018-06-23T21:56:27.243Z,12.20
2018-06-23T21:58:55.672Z,12.20
2018-06-23T22:01:24.178Z,12.30
2018-06-23T22:03:52.656Z,12.30
2018-06-23T22:08:49.660Z,12.30
2018-06-23T22:11:18.186Z,12.40
2018-06-23T22:13:46.714Z,12.40
2018-06-23T22:16:15.621Z,12.30
2018-06-23T22:18:44.159Z,12.30
2018-06-23T22:21:12.945Z,12.20
2018-06-23T22:23:46.412Z,12.20
2018-06-23T22:26:14.956Z,12.10
2018-06-23T22:28:44.229Z,12.00
2018-06-23T22:31:13.768Z,12.00
2018-06-23T22:33:42.512Z,11.90
2018-06-23T22:36:11.068Z,11.90
2018-06-23T22:38:39.968Z,11.90
2018-06-23T22:41:08.489Z,11.90
2018-06-23T22:43:37.316Z,11.90
2018-06-23T22:46:07.545Z,12.00
2018-06-23T22:48:36.184Z,12.00
2018-06-23T22:51:04.708Z,12.00
2018-06-23T22:53:33.209Z,12.00
2018-06-23T22:58:29.947Z,12.00
2018-06-23T23:00:58.501Z,12.00
2018-06-23T23:03:26.989Z,12.00
2018-06-23T23:05:55.601Z,12.00
2018-06-23T23:08:24.134Z,12.10
2018-06-23T23:10:52.625Z,12.10
2018-06-23T23:15:49.355Z,12.10
2018-06-23T23:18:17.839Z,12.10
2018-06-23T23:20:46.332Z,12.00
2018-06-23T23:23:14.856Z,12.00
2018-06-23T23:25:43.349Z,12.00
2018-06-23T23:28:11.881Z,12.00
2018-06-23T23:30:40.353Z,12.00
2018-06-23T23:33:08.879Z,12.00
2018-06-23T23:35:37.351Z,12.00
2018-06-23T23:38:05.889Z,12.10
2018-06-23T23:40:34.373Z,12.00
2018-06-23T23:43:02.914Z,12.00
2018-06-23T23:45:31.457Z,12.00
2018-06-23T23:47:59.947Z,12.10
2018-06-23T23:50:28.450Z,12.00
2018-06-23T23:52:56.945Z,12.00
2018-06-23T23:55:25.510Z,12.00
2018-06-23T23:57:54.288Z,12.00
